createdAt,value
2023-05-19T00:01:02.961Z,7.40
2023-05-19T00:03:31.776Z,7.40
2023-05-19T00:06:00.673Z,7.40
2023-05-19T00:08:32.486Z,7.40
2023-05-19T00:11:01.104Z,7.40
2023-05-19T00:13:30.158Z,7.40
2023-05-19T00:16:00.216Z,7.40
2023-05-19T00:18:29.673Z,7.40
2023-05-19T00:20:58.596Z,7.40
2023-05-19T00:23:26.963Z,7.30
2023-05-19T00:25:54.981Z,7.30
2023-05-19T00:28:22.996Z,7.30
2023-05-19T00:30:52.085Z,7.30
2023-05-19T00:33:21.397Z,7.30
2023-05-19T00:35:49.547Z,7.30
2023-05-19T00:38:17.674Z,7.30
2023-05-19T00:40:46.371Z,7.30
2023-05-19T00:43:14.462Z,7.30
2023-05-19T00:45:42.509Z,7.30
2023-05-19T00:48:10.589Z,7.30
2023-05-19T00:50:40.708Z,7.30
2023-05-19T00:53:09.423Z,7.30
2023-05-19T00:55:40.433Z,7.30
2023-05-19T00:58:11.056Z,7.30
2023-05-19T01:00:39.605Z,7.30
2023-05-19T01:03:11.521Z,7.30
2023-05-19T01:05:44.663Z,7.30
2023-05-19T01:08:13.065Z,7.30
2023-05-19T01:10:41.192Z,7.30
2023-05-19T01:13:09.983Z,7.30
2023-05-19T01:15:51.740Z,7.30
2023-05-19T01:18:27.187Z,7.20
2023-05-19T01:21:37.620Z,7.20
2023-05-19T01:24:24.278Z,7.20
2023-05-19T01:27:15.060Z,7.20
2023-05-19T01:29:49.318Z,7.20
2023-05-19T01:32:21.822Z,7.20
2023-05-19T01:34:51.939Z,7.20
2023-05-19T01:37:21.525Z,7.20
2023-05-19T01:39:52.212Z,7.20
2023-05-19T01:42:21.505Z,7.30
2023-05-19T01:44:51.209Z,7.30
2023-05-19T01:47:20.934Z,7.30
2023-05-19T01:49:48.939Z,7.30
2023-05-19T01:52:16.868Z,7.30
2023-05-19T01:54:45.090Z,7.30
2023-05-19T01:57:25.289Z,7.30
2023-05-19T02:00:05.531Z,7.40
2023-05-19T02:02:54.567Z,7.30
2023-05-19T02:05:35.020Z,7.30
2023-05-19T02:08:13.162Z,7.30
2023-05-19T02:10:48.456Z,7.30
2023-05-19T02:13:21.182Z,7.30
2023-05-19T02:15:51.190Z,7.30
2023-05-19T02:18:21.566Z,7.30
2023-05-19T02:20:52.202Z,7.40
2023-05-19T02:23:21.899Z,7.40
2023-05-19T02:25:49.962Z,7.30
2023-05-19T02:28:18.419Z,7.30
2023-05-19T02:30:46.364Z,7.30
2023-05-19T02:33:14.446Z,7.20
2023-05-19T02:35:45.839Z,7.20
2023-05-19T02:38:16.653Z,7.30
2023-05-19T02:40:44.612Z,7.20
2023-05-19T02:43:12.679Z,7.20
2023-05-19T02:45:41.444Z,7.10
2023-05-19T02:48:09.507Z,7.20
2023-05-19T02:50:38.396Z,7.20
2023-05-19T02:53:07.773Z,7.30
2023-05-19T02:55:36.615Z,7.40
2023-05-19T02:58:05.261Z,7.40
2023-05-19T03:00:33.532Z,7.40
2023-05-19T03:03:02.745Z,7.40
2023-05-19T03:05:31.098Z,7.30
2023-05-19T03:07:59.058Z,7.30
2023-05-19T03:10:28.691Z,7.20
2023-05-19T03:12:57.467Z,7.20
2023-05-19T03:15:25.437Z,7.20
2023-05-19T03:17:53.479Z,7.20
2023-05-19T03:20:21.645Z,7.30
2023-05-19T03:22:49.747Z,7.30
2023-05-19T03:25:18.027Z,7.40
2023-05-19T03:27:48.239Z,7.40
2023-05-19T03:30:16.684Z,7.40
2023-05-19T03:33:01.729Z,7.40
2023-05-19T03:35:30.086Z,7.40
2023-05-19T03:37:58.125Z,7.40
2023-05-19T03:40:27.284Z,7.40
2023-05-19T03:43:03.499Z,7.50
2023-05-19T03:45:33.143Z,7.50
2023-05-19T03:48:12.531Z,7.60
2023-05-19T03:51:09.452Z,7.60
2023-05-19T03:53:37.928Z,7.60
2023-05-19T03:56:07.430Z,7.60
2023-05-19T03:58:40.786Z,7.70
2023-05-19T04:01:08.795Z,7.70
2023-05-19T04:03:37.124Z,7.60
2023-05-19T04:06:06.922Z,7.50
2023-05-19T04:08:35.305Z,7.50
2023-05-19T04:11:04.777Z,7.50
2023-05-19T04:13:35.857Z,7.50
2023-05-19T04:16:04.281Z,7.60
2023-05-19T04:18:32.292Z,7.60
2023-05-19T04:21:00.349Z,7.60
2023-05-19T04:23:28.358Z,7.70
2023-05-19T04:25:57.100Z,7.80
2023-05-19T04:28:25.145Z,7.80
2023-05-19T04:30:54.802Z,7.90
2023-05-19T04:33:22.946Z,7.90
2023-05-19T04:35:51.655Z,7.90
2023-05-19T04:38:22.048Z,7.90
2023-05-19T04:40:51.980Z,7.90
2023-05-19T04:43:22.157Z,8.00
2023-05-19T04:45:51.430Z,8.00
2023-05-19T04:48:23.113Z,8.00
2023-05-19T04:50:53.130Z,8.10
2023-05-19T04:53:21.970Z,8.20
2023-05-19T04:55:50.925Z,8.20
2023-05-19T04:58:19.675Z,8.20
2023-05-19T05:00:48.274Z,8.30
2023-05-19T05:03:16.480Z,8.30
2023-05-19T05:05:45.988Z,8.20
2023-05-19T05:08:16.104Z,8.30
2023-05-19T05:10:44.675Z,8.40
2023-05-19T05:13:13.162Z,8.50
2023-05-19T05:15:41.712Z,8.60
2023-05-19T05:18:11.358Z,8.70
2023-05-19T05:20:40.930Z,8.80
2023-05-19T05:23:14.376Z,8.80
2023-05-19T05:25:45.410Z,8.90
2023-05-19T05:28:14.940Z,9.10
2023-05-19T05:30:44.927Z,9.30
2023-05-19T05:33:15.149Z,9.40
2023-05-19T05:35:43.238Z,9.50
2023-05-19T05:38:15.095Z,9.70
2023-05-19T05:40:43.654Z,9.90
2023-05-19T05:43:11.685Z,9.90
2023-05-19T05:45:46.691Z,10.00
2023-05-19T05:48:15.675Z,10.20
2023-05-19T05:50:45.265Z,10.20
2023-05-19T05:53:20.730Z,10.30
2023-05-19T05:55:53.588Z,10.50
2023-05-19T05:58:24.840Z,10.60
2023-05-19T06:00:57.477Z,10.90
2023-05-19T06:03:27.001Z,11.10
2023-05-19T06:05:56.870Z,11.20
2023-05-19T06:08:26.450Z,11.40
2023-05-19T06:10:54.474Z,11.50
2023-05-19T06:13:24.102Z,11.60
2023-05-19T06:15:53.062Z,11.70
2023-05-19T06:18:26.044Z,11.80
2023-05-19T06:20:54.483Z,12.00
2023-05-19T06:23:22.577Z,12.10
2023-05-19T06:25:52.122Z,12.20
2023-05-19T06:28:20.580Z,12.40
2023-05-19T06:30:48.533Z,12.50
2023-05-19T06:33:28.839Z,12.70
2023-05-19T06:35:57.373Z,12.90
2023-05-19T06:38:25.789Z,13.00
2023-05-19T06:40:55.250Z,13.00
2023-05-19T06:43:25.548Z,13.00
2023-05-19T06:45:56.078Z,13.40
2023-05-19T06:48:26.382Z,13.60
2023-05-19T06:50:54.924Z,13.50
2023-05-19T06:53:24.958Z,13.80
2023-05-19T06:55:59.864Z,13.90
2023-05-19T06:58:31.522Z,13.90
2023-05-19T07:01:00.973Z,13.90
2023-05-19T07:03:34.547Z,13.90
2023-05-19T07:06:03.735Z,13.90
2023-05-19T07:08:32.942Z,14.00
2023-05-19T07:11:04.742Z,13.80
2023-05-19T07:13:33.449Z,13.70
2023-05-19T07:16:01.538Z,13.80
2023-05-19T07:18:31.835Z,14.00
2023-05-19T07:21:00.020Z,14.10
2023-05-19T07:23:28.486Z,14.30
2023-05-19T07:25:57.255Z,14.50
2023-05-19T07:28:26.694Z,14.70
2023-05-19T07:30:54.726Z,14.90
2023-05-19T07:33:22.700Z,15.10
2023-05-19T07:35:50.740Z,15.20
2023-05-19T07:38:18.735Z,15.40
2023-05-19T07:40:46.755Z,15.50
2023-05-19T07:43:14.708Z,15.50
2023-05-19T07:45:44.148Z,15.80
2023-05-19T07:48:12.113Z,15.90
2023-05-19T07:50:40.111Z,16.10
2023-05-19T07:53:08.035Z,16.10
2023-05-19T07:55:36.230Z,16.00
2023-05-19T07:58:04.175Z,16.20
2023-05-19T08:00:32.451Z,16.20
2023-05-19T08:03:02.282Z,16.30
2023-05-19T08:05:30.894Z,16.30
2023-05-19T08:07:58.826Z,16.70
2023-05-19T08:10:27.049Z,17.00
2023-05-19T08:12:54.992Z,17.00
2023-05-19T08:15:25.278Z,16.90
2023-05-19T08:17:53.299Z,17.10
2023-05-19T08:20:24.246Z,17.40
2023-05-19T08:22:52.475Z,17.50
2023-05-19T08:25:20.737Z,17.30
2023-05-19T08:27:48.814Z,17.20
2023-05-19T08:30:16.848Z,17.50
2023-05-19T08:32:44.975Z,17.70
2023-05-19T08:35:13.013Z,17.70
2023-05-19T08:37:42.415Z,17.60
2023-05-19T08:40:16.971Z,17.40
2023-05-19T08:42:45.034Z,17.40
2023-05-19T08:45:13.647Z,17.30
2023-05-19T08:47:43.121Z,17.20
2023-05-19T08:50:14.177Z,17.00
2023-05-19T08:52:53.123Z,17.30
2023-05-19T08:55:33.869Z,17.70
2023-05-19T08:58:04.556Z,18.10
2023-05-19T09:00:34.736Z,18.20
2023-05-19T09:03:17.725Z,18.20
2023-05-19T09:05:53.167Z,18.30
2023-05-19T09:08:22.676Z,18.30
2023-05-19T09:10:50.972Z,18.50
2023-05-19T09:13:19.430Z,18.30
2023-05-19T09:15:48.005Z,18.20
2023-05-19T09:18:16.042Z,18.30
2023-05-19T09:20:46.019Z,18.50
2023-05-19T09:23:16.067Z,18.40
2023-05-19T09:25:52.920Z,18.60
2023-05-19T09:28:27.970Z,19.00
2023-05-19T09:31:01.094Z,18.50
2023-05-19T09:33:29.623Z,18.50
2023-05-19T09:35:58.336Z,18.40
2023-05-19T09:38:26.798Z,18.40
2023-05-19T09:40:58.369Z,18.70
2023-05-19T09:43:29.058Z,18.60
2023-05-19T09:46:00.217Z,18.50
2023-05-19T09:48:28.739Z,18.70
2023-05-19T09:50:57.180Z,18.70
2023-05-19T09:53:26.158Z,18.90
2023-05-19T09:55:58.805Z,19.00
2023-05-19T09:58:27.910Z,19.10
2023-05-19T10:00:57.427Z,18.90
2023-05-19T10:03:26.349Z,19.00
2023-05-19T10:05:54.790Z,19.00
2023-05-19T10:08:26.552Z,19.10
2023-05-19T10:10:55.086Z,19.10
2023-05-19T10:13:25.366Z,18.90
2023-05-19T10:15:59.328Z,18.80
2023-05-19T10:18:29.432Z,19.00
2023-05-19T10:20:58.578Z,18.80
2023-05-19T10:23:26.995Z,18.80
2023-05-19T10:25:57.555Z,19.10
2023-05-19T10:28:36.000Z,19.20
2023-05-19T10:31:07.736Z,19.30
2023-05-19T10:33:48.232Z,19.30
2023-05-19T10:36:40.151Z,19.30
2023-05-19T10:39:17.657Z,19.50
2023-05-19T10:41:54.744Z,19.20
2023-05-19T10:44:35.213Z,19.20
2023-05-19T10:47:03.359Z,19.10
2023-05-19T10:49:36.537Z,19.10
2023-05-19T10:52:05.357Z,19.40
2023-05-19T10:54:43.256Z,19.60
2023-05-19T10:57:15.677Z,19.60
2023-05-19T10:59:45.662Z,19.30
2023-05-19T11:02:41.558Z,19.00
2023-05-19T11:05:11.342Z,19.10
2023-05-19T11:07:43.378Z,19.10
2023-05-19T11:10:12.348Z,18.90
2023-05-19T11:12:45.778Z,18.90
2023-05-19T11:15:16.540Z,19.00
2023-05-19T11:17:48.449Z,19.10
2023-05-19T11:20:24.020Z,19.10
2023-05-19T11:23:08.597Z,19.50
2023-05-19T11:25:47.867Z,19.30
2023-05-19T11:28:17.540Z,19.30
2023-05-19T11:30:50.284Z,19.50
2023-05-19T11:33:19.651Z,19.50
2023-05-19T11:35:49.352Z,19.60
2023-05-19T11:38:18.145Z,19.50
2023-05-19T11:40:47.200Z,19.20
2023-05-19T11:43:16.191Z,19.10
2023-05-19T11:45:44.318Z,19.10
2023-05-19T11:48:15.961Z,19.30
2023-05-19T11:50:44.871Z,19.30
2023-05-19T11:53:14.561Z,19.50
2023-05-19T11:55:47.377Z,19.60
2023-05-19T11:58:16.168Z,19.70
2023-05-19T12:00:46.023Z,19.70
2023-05-19T12:03:15.999Z,19.50
2023-05-19T12:05:47.038Z,19.30
2023-05-19T12:08:15.791Z,19.30
2023-05-19T12:10:43.729Z,19.40
2023-05-19T12:13:11.935Z,19.30
2023-05-19T12:15:40.046Z,19.40
2023-05-19T12:18:08.537Z,19.30
2023-05-19T12:20:38.179Z,19.20
2023-05-19T12:23:06.866Z,19.00
2023-05-19T12:25:35.321Z,19.00
2023-05-19T12:28:04.471Z,19.10
2023-05-19T12:30:34.441Z,19.30
2023-05-19T12:33:03.892Z,19.30
2023-05-19T12:35:33.499Z,19.20
2023-05-19T12:38:05.619Z,19.20
2023-05-19T12:40:34.999Z,19.30
2023-05-19T12:43:03.417Z,19.30
2023-05-19T12:45:35.674Z,19.10
2023-05-19T12:48:05.277Z,19.30
2023-05-19T12:50:34.397Z,19.40
2023-05-19T12:53:02.787Z,19.20
2023-05-19T12:55:38.034Z,19.20
2023-05-19T12:58:08.283Z,19.10
2023-05-19T13:00:41.953Z,19.10
2023-05-19T13:03:17.452Z,19.20
2023-05-19T13:05:47.948Z,19.30
2023-05-19T13:08:17.405Z,19.10
2023-05-19T13:10:49.070Z,18.90
2023-05-19T13:13:17.576Z,18.90
2023-05-19T13:15:48.741Z,18.90
2023-05-19T13:18:17.499Z,19.20
2023-05-19T13:20:46.674Z,19.10
2023-05-19T13:23:15.303Z,19.00
2023-05-19T13:25:43.924Z,19.00
2023-05-19T13:28:13.514Z,18.80
2023-05-19T13:30:42.503Z,18.80
2023-05-19T13:33:11.457Z,18.70
2023-05-19T13:35:39.538Z,18.80
2023-05-19T13:38:09.595Z,19.00
2023-05-19T13:40:38.566Z,18.90
2023-05-19T13:43:07.297Z,18.90
2023-05-19T13:45:36.826Z,19.00
2023-05-19T13:48:07.210Z,18.70
2023-05-19T13:50:36.050Z,18.80
2023-05-19T13:53:04.548Z,19.00
2023-05-19T13:55:32.868Z,19.00
2023-05-19T13:58:00.937Z,19.20
2023-05-19T14:00:29.024Z,19.10
2023-05-19T14:02:59.308Z,19.30
2023-05-19T14:05:28.794Z,19.30
2023-05-19T14:07:57.065Z,19.10
2023-05-19T14:10:25.215Z,19.10
2023-05-19T14:15:26.729Z,19.40
2023-05-19T14:17:54.780Z,19.50
2023-05-19T14:20:24.203Z,19.50
2023-05-19T14:22:52.141Z,19.50
2023-05-19T14:25:20.454Z,19.40
2023-05-19T14:27:48.517Z,19.30
2023-05-19T14:30:16.540Z,19.20
2023-05-19T14:32:44.487Z,19.30
2023-05-19T14:35:12.626Z,19.30
2023-05-19T14:37:42.047Z,19.20
2023-05-19T14:40:10.875Z,19.10
2023-05-19T14:42:38.917Z,18.90
2023-05-19T14:45:07.839Z,18.80
2023-05-19T14:47:35.817Z,18.60
2023-05-19T14:50:03.820Z,18.40
2023-05-19T14:52:31.782Z,18.30
2023-05-19T14:55:01.124Z,18.20
2023-05-19T14:57:29.202Z,18.00
2023-05-19T14:59:57.129Z,17.90
2023-05-19T15:02:27.429Z,17.80
2023-05-19T15:04:56.656Z,17.80
2023-05-19T15:07:24.634Z,17.80
2023-05-19T15:09:52.680Z,17.70
2023-05-19T15:12:22.096Z,17.60
2023-05-19T15:14:51.023Z,17.60
2023-05-19T15:17:19.093Z,17.50
2023-05-19T15:19:47.342Z,17.50
2023-05-19T15:22:15.267Z,17.40
2023-05-19T15:24:43.402Z,17.30
2023-05-19T15:27:11.576Z,17.20
2023-05-19T15:29:40.995Z,17.30
2023-05-19T15:32:09.943Z,17.40
2023-05-19T15:34:37.925Z,17.40
2023-05-19T15:37:06.400Z,17.40
2023-05-19T15:39:34.916Z,17.50
2023-05-19T15:42:03.038Z,17.60
2023-05-19T15:44:31.318Z,17.70
2023-05-19T15:47:00.762Z,17.70
2023-05-19T15:49:28.756Z,17.60
2023-05-19T15:51:56.816Z,17.40
2023-05-19T15:54:25.191Z,17.40
2023-05-19T15:56:53.231Z,17.40
2023-05-19T15:59:21.156Z,17.50
2023-05-19T16:01:50.581Z,17.70
2023-05-19T16:04:22.236Z,17.90
2023-05-19T16:06:50.451Z,17.80
2023-05-19T16:09:18.493Z,17.80
2023-05-19T16:11:46.586Z,17.80
2023-05-19T16:14:14.565Z,17.60
2023-05-19T16:16:44.417Z,17.50
2023-05-19T16:19:12.575Z,17.40
2023-05-19T16:21:41.987Z,17.50
2023-05-19T16:24:09.994Z,17.40
2023-05-19T16:26:37.960Z,17.60
2023-05-19T16:29:06.061Z,17.60
2023-05-19T16:31:34.042Z,17.70
2023-05-19T16:34:02.096Z,17.50
2023-05-19T16:36:30.093Z,17.30
2023-05-19T16:38:59.559Z,17.30
2023-05-19T16:41:27.643Z,17.10
2023-05-19T16:43:55.681Z,17.00
2023-05-19T16:46:23.703Z,16.90
2023-05-19T16:48:51.786Z,16.70
2023-05-19T16:51:19.787Z,16.60
2023-05-19T16:53:47.825Z,16.50
2023-05-19T16:56:17.261Z,16.40
2023-05-19T16:58:45.335Z,16.30
2023-05-19T17:01:13.450Z,16.30
2023-05-19T17:03:41.756Z,16.20
2023-05-19T17:06:09.668Z,16.30
2023-05-19T17:08:37.717Z,16.20
2023-05-19T17:11:06.483Z,16.10
2023-05-19T17:13:36.328Z,16.10
2023-05-19T17:16:04.574Z,16.10
2023-05-19T17:18:32.660Z,16.20
2023-05-19T17:21:03.532Z,16.10
2023-05-19T17:23:32.291Z,16.00
2023-05-19T17:26:00.321Z,16.00
2023-05-19T17:28:29.218Z,16.10
2023-05-19T17:30:58.788Z,15.90
2023-05-19T17:33:26.972Z,16.00
2023-05-19T17:35:54.968Z,16.00
2023-05-19T17:38:23.068Z,15.90
2023-05-19T17:40:50.976Z,15.80
2023-05-19T17:43:18.931Z,15.70
2023-05-19T17:45:46.862Z,15.60
2023-05-19T17:48:16.328Z,15.50
2023-05-19T17:50:44.360Z,15.40
2023-05-19T17:53:12.865Z,15.40
2023-05-19T17:55:45.194Z,15.30
2023-05-19T17:58:13.613Z,15.20
2023-05-19T18:00:41.923Z,15.10
2023-05-19T18:03:11.302Z,15.10
2023-05-19T18:05:43.185Z,15.10
2023-05-19T18:08:13.124Z,15.00
2023-05-19T18:10:42.867Z,14.90
2023-05-19T18:13:13.903Z,14.90
2023-05-19T18:15:42.036Z,14.80
2023-05-19T18:18:10.881Z,14.80
2023-05-19T18:20:44.300Z,14.70
2023-05-19T18:23:12.976Z,14.60
2023-05-19T18:25:40.908Z,14.60
2023-05-19T18:28:09.246Z,14.50
2023-05-19T18:30:37.282Z,14.50
2023-05-19T18:33:07.158Z,14.40
2023-05-19T18:35:35.725Z,14.30
2023-05-19T18:38:05.018Z,14.30
2023-05-19T18:40:33.440Z,14.20
2023-05-19T18:43:01.605Z,14.20
2023-05-19T18:45:31.993Z,14.10
2023-05-19T18:47:59.972Z,14.10
2023-05-19T18:50:28.233Z,14.10
2023-05-19T18:52:56.129Z,14.00
2023-05-19T18:55:25.615Z,13.90
2023-05-19T18:57:54.100Z,13.90
2023-05-19T19:00:22.212Z,13.90
2023-05-19T19:02:50.192Z,13.80
2023-05-19T19:05:18.344Z,13.70
2023-05-19T19:07:46.357Z,13.70
2023-05-19T19:10:15.122Z,13.70
2023-05-19T19:12:44.436Z,13.70
2023-05-19T19:15:12.855Z,13.60
2023-05-19T19:17:41.060Z,13.60
2023-05-19T19:20:10.210Z,13.60
2023-05-19T19:22:38.197Z,13.50
2023-05-19T19:25:06.833Z,13.40
2023-05-19T19:27:35.612Z,13.30
2023-05-19T19:30:05.610Z,13.30
2023-05-19T19:32:33.654Z,13.20
2023-05-19T19:35:01.794Z,13.20
2023-05-19T19:37:29.765Z,13.10
2023-05-19T19:39:57.712Z,13.00
2023-05-19T19:42:25.713Z,13.10
2023-05-19T19:44:56.095Z,13.00
2023-05-19T19:47:25.547Z,13.00
2023-05-19T19:49:53.522Z,13.00
2023-05-19T19:52:21.627Z,12.90
2023-05-19T19:54:49.560Z,12.90
2023-05-19T19:57:17.612Z,12.80
2023-05-19T19:59:45.681Z,12.80
2023-05-19T20:02:13.768Z,12.80
2023-05-19T20:04:43.109Z,12.70
2023-05-19T20:07:11.188Z,12.60
2023-05-19T20:09:39.311Z,12.60
2023-05-19T20:12:08.085Z,12.60
2023-05-19T20:14:36.587Z,12.60
2023-05-19T20:17:04.759Z,12.60
2023-05-19T20:19:32.755Z,12.60
2023-05-19T20:22:02.204Z,12.60
2023-05-19T20:24:30.162Z,12.60
2023-05-19T20:26:58.077Z,12.50
2023-05-19T20:29:26.116Z,12.60
2023-05-19T20:31:55.491Z,12.70
2023-05-19T20:34:24.694Z,12.60
2023-05-19T20:36:52.638Z,12.60
2023-05-19T20:39:22.228Z,12.50
2023-05-19T20:41:50.317Z,12.50
2023-05-19T20:44:18.256Z,12.50
2023-05-19T20:46:46.298Z,12.50
2023-05-19T20:49:14.284Z,12.50
2023-05-19T20:51:42.345Z,12.40
2023-05-19T20:54:10.306Z,12.40
2023-05-19T20:56:39.712Z,12.40
2023-05-19T20:59:07.744Z,12.40
2023-05-19T21:01:35.742Z,12.30
2023-05-19T21:04:06.713Z,12.30
2023-05-19T21:06:35.339Z,12.30
2023-05-19T21:09:05.271Z,12.20
2023-05-19T21:11:33.336Z,12.20
2023-05-19T21:14:03.982Z,12.20
2023-05-19T21:16:33.899Z,12.20
2023-05-19T21:19:02.367Z,12.10
2023-05-19T21:21:31.613Z,12.20
2023-05-19T21:23:59.749Z,12.10
2023-05-19T21:26:27.670Z,12.10
2023-05-19T21:28:55.632Z,12.10
2023-05-19T21:31:24.962Z,12.10
2023-05-19T21:33:53.032Z,12.10
2023-05-19T21:36:20.966Z,12.00
2023-05-19T21:38:48.933Z,12.00
2023-05-19T21:41:16.904Z,12.00
2023-05-19T21:43:45.326Z,11.90
2023-05-19T21:46:14.007Z,11.90
2023-05-19T21:48:43.342Z,11.90
2023-05-19T21:51:11.538Z,11.80
2023-05-19T21:53:39.474Z,11.80
2023-05-19T21:56:07.711Z,11.80
2023-05-19T21:58:35.658Z,11.80
2023-05-19T22:01:05.749Z,11.70
2023-05-19T22:03:33.775Z,11.70
2023-05-19T22:06:03.346Z,11.60
2023-05-19T22:08:31.305Z,11.60
2023-05-19T22:10:59.354Z,11.60
2023-05-19T22:13:27.411Z,11.60
2023-05-19T22:15:55.410Z,11.60
2023-05-19T22:18:23.648Z,11.50
2023-05-19T22:20:51.569Z,11.40
2023-05-19T22:23:20.962Z,11.50
2023-05-19T22:25:49.028Z,11.40
2023-05-19T22:28:17.021Z,11.40
2023-05-19T22:30:45.001Z,11.40
2023-05-19T22:33:13.265Z,11.40
2023-05-19T22:35:41.352Z,11.30
2023-05-19T22:38:10.668Z,11.30
2023-05-19T22:40:40.267Z,11.20
2023-05-19T22:43:08.321Z,11.20
2023-05-19T22:45:37.086Z,11.20
2023-05-19T22:48:05.951Z,11.20
2023-05-19T22:50:33.922Z,11.20
2023-05-19T22:53:02.090Z,11.20
2023-05-19T22:55:30.024Z,11.10
2023-05-19T22:58:00.522Z,11.10
2023-05-19T23:00:28.498Z,11.00
2023-05-19T23:02:58.186Z,11.00
2023-05-19T23:05:26.350Z,11.00
2023-05-19T23:07:54.349Z,11.00
2023-05-19T23:10:22.347Z,11.00
2023-05-19T23:12:51.455Z,11.00
2023-05-19T23:15:21.061Z,10.90
2023-05-19T23:17:49.077Z,11.00
2023-05-19T23:20:17.205Z,11.00
2023-05-19T23:22:45.535Z,11.00
2023-05-19T23:25:14.378Z,11.00
2023-05-19T23:27:42.343Z,11.00
2023-05-19T23:30:10.797Z,11.00
2023-05-19T23:32:40.855Z,11.00
2023-05-19T23:35:13.420Z,11.00
2023-05-19T23:37:41.690Z,11.00
2023-05-19T23:40:10.314Z,10.90
2023-05-19T23:42:38.557Z,10.90
2023-05-19T23:45:07.465Z,10.90
2023-05-19T23:47:35.565Z,10.90
2023-05-19T23:50:05.449Z,10.90
2023-05-19T23:52:33.748Z,11.00
2023-05-19T23:55:03.316Z,10.90
2023-05-19T23:57:31.440Z,10.90
